Mocanaqua, Pennsylvania
Current Conditions -  °F | °C
As of 4:15 PM on Friday 24 Oct 2014 (Local Time) from KHZL Reporting Station
Clear Clear  
Wind Chill: 63°   Ceiling: Unl
Heat Index: 63°   Visibility: 10mi
Dew Point: 41°   Wind: 12mph
Humidity: 45%   Direction: 330°NNW
Pressure: 29.87"   Gusts: 17mph
Location:  41.1968°N, 76.1956°W
Report Text: KHZL 242015Z AUTO 33010G15KT 10SM CLR 17/05 A2987 RMK AO2
Loading
Personal Weather Stations






























Interactive Weather Map
Tropical Storm Tracking
New forecast layout! Learn more

10-Day Weather Forecast

Advertisements
Track Severe Weather on mobile